createdAt,value
2019-04-26T00:01:19.765Z,2.93
2019-04-26T00:03:49.482Z,1.40
2019-04-26T00:06:19.427Z,3.07
2019-04-26T00:08:53.613Z,2.63
2019-04-26T00:11:38.250Z,1.43
2019-04-26T00:14:25.540Z,0.93
2019-04-26T00:16:58.788Z,0.80
2019-04-26T00:19:29.010Z,2.00
2019-04-26T00:21:58.924Z,1.03
2019-04-26T00:24:28.839Z,1.70
2019-04-26T00:26:58.295Z,3.57
2019-04-26T00:29:27.801Z,2.30
2019-04-26T00:31:57.150Z,2.00
2019-04-26T00:34:26.718Z,1.57
2019-04-26T00:36:56.049Z,1.83
2019-04-26T00:39:25.330Z,2.40
2019-04-26T00:41:54.858Z,2.23
2019-04-26T00:44:24.160Z,2.10
2019-04-26T00:46:55.292Z,1.20
2019-04-26T00:49:25.260Z,1.60
2019-04-26T00:51:54.812Z,1.53
2019-04-26T00:54:24.728Z,2.80
2019-04-26T00:56:54.562Z,1.93
2019-04-26T00:59:24.694Z,1.60
2019-04-26T01:01:58.659Z,1.30
2019-04-26T01:04:28.190Z,1.27
2019-04-26T01:06:59.309Z,1.77
2019-04-26T01:09:28.839Z,3.37
2019-04-26T01:11:58.446Z,2.57
2019-04-26T01:14:27.933Z,1.93
2019-04-26T01:16:57.497Z,3.17
2019-04-26T01:19:26.935Z,1.90
2019-04-26T01:21:57.730Z,2.63
2019-04-26T01:24:28.718Z,2.40
2019-04-26T01:26:59.470Z,2.70
2019-04-26T01:29:30.033Z,1.87
2019-04-26T01:32:02.200Z,3.33
2019-04-26T01:34:31.948Z,1.40
2019-04-26T01:37:02.937Z,1.80
2019-04-26T01:39:33.612Z,2.00
2019-04-26T01:42:32.747Z,4.40
2019-04-26T01:45:26.036Z,2.37
2019-04-26T01:47:57.221Z,2.80
2019-04-26T01:50:28.129Z,1.63
2019-04-26T01:52:57.983Z,2.03
2019-04-26T01:55:29.181Z,2.27
2019-04-26T01:58:00.562Z,1.70
2019-04-26T02:00:39.993Z,1.83
2019-04-26T02:03:16.286Z,1.70
2019-04-26T02:05:45.635Z,2.10
2019-04-26T02:08:15.177Z,2.87
2019-04-26T02:10:44.734Z,2.53
2019-04-26T02:13:14.812Z,4.77
2019-04-26T02:15:44.190Z,2.03
2019-04-26T02:18:13.548Z,2.10
2019-04-26T02:21:04.002Z,2.10
2019-04-26T02:23:42.397Z,2.67
2019-04-26T02:26:30.401Z,1.97
2019-04-26T02:29:00.171Z,2.63
2019-04-26T02:31:31.459Z,2.63
2019-04-26T02:34:01.065Z,1.93
2019-04-26T02:36:47.869Z,2.03
2019-04-26T02:39:04.540Z,2.60
2019-04-26T02:41:35.709Z,2.23
2019-04-26T02:44:06.806Z,4.07
2019-04-26T02:46:45.420Z,1.90
2019-04-26T02:49:30.409Z,3.30
2019-04-26T02:52:03.585Z,2.47
2019-04-26T02:54:45.741Z,2.40
2019-04-26T02:57:31.384Z,2.40
2019-04-26T03:00:04.858Z,2.47
2019-04-26T03:02:36.565Z,2.77
2019-04-26T03:05:06.657Z,2.70
2019-04-26T03:07:56.613Z,3.43
2019-04-26T03:10:31.808Z,2.27
2019-04-26T03:13:02.788Z,2.03
2019-04-26T03:15:43.057Z,3.23
2019-04-26T03:18:33.001Z,3.07
2019-04-26T03:21:04.671Z,3.60
2019-04-26T03:23:53.626Z,3.17
2019-04-26T03:26:35.157Z,2.57
2019-04-26T03:29:13.690Z,3.37
2019-04-26T03:31:54.543Z,2.70
2019-04-26T03:34:29.191Z,2.93
2019-04-26T03:37:26.148Z,2.67
2019-04-26T03:40:05.483Z,2.63
2019-04-26T03:42:49.670Z,2.50
2019-04-26T03:45:21.211Z,2.03
2019-04-26T03:48:17.352Z,2.70
2019-04-26T03:50:50.978Z,2.60
2019-04-26T03:53:24.761Z,2.73
2019-04-26T03:56:05.765Z,3.10
2019-04-26T03:58:59.229Z,2.93
2019-04-26T04:01:29.874Z,3.33
2019-04-26T04:04:07.417Z,2.70
2019-04-26T04:06:56.222Z,2.40
2019-04-26T04:09:09.852Z,2.93
2019-04-26T04:11:43.131Z,2.60
2019-04-26T04:14:16.843Z,2.90
2019-04-26T04:16:50.833Z,3.97
2019-04-26T04:19:38.592Z,3.30
2019-04-26T04:22:09.784Z,3.17
2019-04-26T04:24:44.916Z,4.20
2019-04-26T04:27:28.549Z,2.70
2019-04-26T04:30:11.588Z,3.23
2019-04-26T04:32:55.214Z,2.90
2019-04-26T04:35:26.960Z,3.60
2019-04-26T04:38:08.446Z,2.80
2019-04-26T04:41:08.601Z,3.37
2019-04-26T04:43:49.276Z,3.67
2019-04-26T04:46:33.615Z,3.47
2019-04-26T04:49:24.110Z,3.30
2019-04-26T04:51:59.654Z,2.97
2019-04-26T04:54:33.510Z,3.30
2019-04-26T04:57:27.619Z,4.23
2019-04-26T05:00:15.326Z,6.67
2019-04-26T05:03:09.013Z,4.90
2019-04-26T05:06:08.275Z,4.43
2019-04-26T05:08:49.693Z,3.93
2019-04-26T05:11:20.228Z,4.40
2019-04-26T05:14:11.652Z,3.80
2019-04-26T05:16:46.941Z,5.00
2019-04-26T05:19:37.895Z,4.60
2019-04-26T05:22:22.944Z,4.77
2019-04-26T05:25:17.623Z,6.83
2019-04-26T05:27:58.011Z,8.00
2019-04-26T05:31:15.947Z,7.23
2019-04-26T05:34:07.061Z,8.57
2019-04-26T05:36:44.469Z,9.73
2019-04-26T05:39:19.483Z,9.07
2019-04-26T05:42:25.361Z,10.50
2019-04-26T05:45:24.292Z,10.30
2019-04-26T05:48:20.258Z,13.27
2019-04-26T05:51:17.424Z,14.17
2019-04-26T05:54:12.888Z,15.33
2019-04-26T05:57:03.073Z,15.80
2019-04-26T05:59:36.350Z,16.40
2019-04-26T06:02:43.189Z,19.67
2019-04-26T06:05:46.184Z,20.60
2019-04-26T06:08:40.467Z,19.97
2019-04-26T06:11:17.343Z,21.40
2019-04-26T06:14:12.233Z,22.47
2019-04-26T06:16:54.850Z,22.33
2019-04-26T06:19:47.501Z,22.17
2019-04-26T06:22:41.795Z,22.80
2019-04-26T06:25:48.152Z,23.50
2019-04-26T06:28:29.722Z,22.97
2019-04-26T06:31:04.036Z,25.07
2019-04-26T06:33:36.129Z,23.67
2019-04-26T06:36:12.720Z,25.00
2019-04-26T06:39:11.095Z,26.47
2019-04-26T06:42:14.666Z,24.50
2019-04-26T06:44:52.562Z,25.17
2019-04-26T06:47:35.326Z,24.27
2019-04-26T06:50:13.189Z,24.50
2019-04-26T06:53:03.909Z,24.80
2019-04-26T06:56:05.537Z,25.37
2019-04-26T06:58:45.117Z,24.97
2019-04-26T07:01:25.533Z,27.43
2019-04-26T07:04:29.349Z,25.93
2019-04-26T07:07:15.342Z,23.93
2019-04-26T07:09:59.125Z,24.17
2019-04-26T07:12:53.872Z,24.10
2019-04-26T07:15:51.447Z,22.77
2019-04-26T07:18:27.646Z,22.60
2019-04-26T07:21:09.755Z,22.63
2019-04-26T07:24:29.765Z,22.07
2019-04-26T07:27:18.605Z,23.33
2019-04-26T07:30:07.137Z,22.87
2019-04-26T07:32:46.724Z,22.80
2019-04-26T07:35:37.863Z,22.53
2019-04-26T07:39:09.020Z,21.67
2019-04-26T07:41:51.501Z,21.20
2019-04-26T07:44:39.238Z,20.40
2019-04-26T07:47:21.320Z,20.00
2019-04-26T07:50:24.934Z,19.73
2019-04-26T07:53:09.315Z,18.37
2019-04-26T07:55:45.477Z,18.10
2019-04-26T07:58:32.596Z,17.10
2019-04-26T08:01:15.376Z,18.03
2019-04-26T08:03:52.565Z,17.40
2019-04-26T08:06:36.848Z,16.43
2019-04-26T08:09:24.820Z,17.30
2019-04-26T08:11:49.721Z,17.27
2019-04-26T08:14:23.752Z,16.80
2019-04-26T08:17:14.898Z,16.93
2019-04-26T08:19:48.531Z,16.93
2019-04-26T08:22:28.342Z,15.57
2019-04-26T08:24:54.799Z,16.33
2019-04-26T08:27:26.169Z,16.50
2019-04-26T08:29:59.141Z,16.43
2019-04-26T08:32:32.033Z,16.27
2019-04-26T08:35:08.257Z,16.67
2019-04-26T08:37:48.687Z,16.53
2019-04-26T08:40:26.544Z,15.80
2019-04-26T08:43:14.054Z,16.10
2019-04-26T08:46:04.720Z,16.83
2019-04-26T08:48:53.146Z,14.70
2019-04-26T08:51:23.884Z,16.37
2019-04-26T08:53:54.620Z,16.10
2019-04-26T08:56:27.020Z,15.00
2019-04-26T08:58:58.561Z,13.17
2019-04-26T09:01:48.312Z,13.63
2019-04-26T09:04:31.746Z,13.10
2019-04-26T09:07:05.702Z,12.27
2019-04-26T09:09:36.778Z,11.03
2019-04-26T09:12:09.720Z,11.97
2019-04-26T09:14:40.319Z,11.10
2019-04-26T09:17:09.721Z,11.07
2019-04-26T09:19:39.205Z,9.20
2019-04-26T09:22:22.617Z,10.07
2019-04-26T09:25:00.696Z,10.53
2019-04-26T09:27:58.984Z,10.47
2019-04-26T09:30:50.650Z,11.90
2019-04-26T09:33:38.805Z,10.27
2019-04-26T09:36:09.061Z,10.13
2019-04-26T09:38:38.523Z,11.13
2019-04-26T09:41:08.023Z,10.50
2019-04-26T09:43:58.862Z,9.90
2019-04-26T09:47:04.188Z,8.70
2019-04-26T09:49:43.825Z,9.33
2019-04-26T09:52:18.314Z,7.50
2019-04-26T09:54:47.505Z,7.47
2019-04-26T09:57:16.860Z,7.87
2019-04-26T09:59:46.070Z,8.17
2019-04-26T10:02:15.220Z,7.67
2019-04-26T10:04:44.612Z,7.50
2019-04-26T10:07:14.764Z,8.53
2019-04-26T10:09:44.275Z,8.40
2019-04-26T10:12:26.994Z,7.63
2019-04-26T10:15:13.893Z,7.47
2019-04-26T10:17:46.409Z,7.27
2019-04-26T10:20:14.419Z,7.77
2019-04-26T10:22:43.871Z,8.03
2019-04-26T10:25:16.763Z,7.20
2019-04-26T10:27:43.947Z,7.83
2019-04-26T10:30:16.166Z,8.30
2019-04-26T10:32:45.992Z,8.83
2019-04-26T10:35:17.649Z,8.50
2019-04-26T10:37:48.041Z,7.43
2019-04-26T10:40:17.772Z,7.93
2019-04-26T10:42:47.022Z,6.50
2019-04-26T10:45:17.123Z,7.23
2019-04-26T10:47:46.555Z,7.13
2019-04-26T10:50:16.314Z,6.93
2019-04-26T10:53:03.564Z,7.60
2019-04-26T10:55:52.112Z,6.47
2019-04-26T10:58:47.240Z,7.20
2019-04-26T11:01:18.122Z,7.33
2019-04-26T11:03:47.464Z,6.77
2019-04-26T11:06:17.035Z,7.10
2019-04-26T11:08:46.671Z,7.63
2019-04-26T11:11:16.328Z,7.43
2019-04-26T11:13:45.694Z,7.80
2019-04-26T11:16:15.287Z,8.07
2019-04-26T11:18:44.579Z,8.47
2019-04-26T11:21:16.506Z,8.43
2019-04-26T11:23:45.565Z,9.80
2019-04-26T11:26:16.692Z,9.73
2019-04-26T11:28:46.083Z,10.40
2019-04-26T11:31:15.447Z,11.67
2019-04-26T11:33:45.301Z,11.10
2019-04-26T11:36:16.109Z,11.37
2019-04-26T11:38:45.424Z,11.50
2019-04-26T11:41:14.735Z,10.93
2019-04-26T11:43:43.823Z,10.63
2019-04-26T11:46:13.129Z,9.17
2019-04-26T11:48:42.476Z,8.90
2019-04-26T11:51:12.081Z,8.67
2019-04-26T11:53:44.695Z,8.90
2019-04-26T11:56:12.252Z,8.83
2019-04-26T11:58:41.559Z,8.57
2019-04-26T12:01:12.316Z,8.13
2019-04-26T12:03:43.757Z,8.77
2019-04-26T12:06:32.089Z,9.10
2019-04-26T12:09:15.759Z,8.33
2019-04-26T12:11:50.951Z,7.43
2019-04-26T12:14:20.355Z,8.27
2019-04-26T12:16:51.183Z,6.53
2019-04-26T12:19:19.802Z,7.67
2019-04-26T12:21:49.531Z,7.00
2019-04-26T12:24:18.803Z,6.37
2019-04-26T12:26:48.225Z,6.10
2019-04-26T12:29:17.270Z,6.37
2019-04-26T12:31:46.585Z,6.50
2019-04-26T12:34:17.986Z,6.37
2019-04-26T12:36:46.546Z,6.67
2019-04-26T12:39:17.146Z,6.50
2019-04-26T12:41:46.446Z,7.20
2019-04-26T12:44:15.845Z,6.70
2019-04-26T12:46:54.368Z,7.30
2019-04-26T12:49:24.480Z,7.40
2019-04-26T12:51:54.597Z,6.80
2019-04-26T12:54:24.011Z,8.33
2019-04-26T12:56:53.294Z,7.43
2019-04-26T12:59:26.605Z,8.10
2019-04-26T13:02:05.050Z,7.47
2019-04-26T13:04:35.570Z,8.20
2019-04-26T13:07:07.048Z,8.20
2019-04-26T13:09:37.812Z,8.17
2019-04-26T13:12:13.450Z,9.20
2019-04-26T13:15:16.833Z,8.83
2019-04-26T13:17:51.798Z,9.30
2019-04-26T13:20:24.368Z,10.13
2019-04-26T13:22:54.184Z,10.57
2019-04-26T13:25:26.593Z,10.67
2019-04-26T13:27:53.906Z,11.27
2019-04-26T13:30:32.743Z,12.20
2019-04-26T13:32:54.878Z,11.77
2019-04-26T13:35:24.193Z,12.20
2019-04-26T13:37:56.534Z,13.27
2019-04-26T13:40:29.561Z,12.93
2019-04-26T13:42:56.876Z,12.50
2019-04-26T13:45:37.522Z,17.77
2019-04-26T13:48:25.058Z,13.90
2019-04-26T13:51:01.378Z,13.37
2019-04-26T13:53:29.719Z,14.90
2019-04-26T13:56:01.978Z,13.83
2019-04-26T13:58:31.684Z,15.27
2019-04-26T14:01:00.831Z,15.47
2019-04-26T14:03:31.658Z,14.57
2019-04-26T14:06:01.034Z,16.40
2019-04-26T14:08:30.358Z,16.23
2019-04-26T14:11:00.051Z,17.10
2019-04-26T14:13:29.515Z,17.90
2019-04-26T14:15:58.957Z,17.90
2019-04-26T14:18:28.896Z,17.93
2019-04-26T14:20:59.011Z,17.07
2019-04-26T14:23:53.137Z,18.23
2019-04-26T14:26:27.607Z,19.17
2019-04-26T14:28:58.091Z,20.97
2019-04-26T14:31:27.644Z,22.33
2019-04-26T14:33:57.326Z,24.30
2019-04-26T14:36:27.647Z,24.93
2019-04-26T14:39:05.773Z,25.03
2019-04-26T14:41:28.277Z,24.73
2019-04-26T14:43:57.862Z,24.83
2019-04-26T14:46:27.055Z,27.20
2019-04-26T14:49:02.140Z,27.70
2019-04-26T14:51:27.845Z,27.27
2019-04-26T14:53:57.382Z,29.23
2019-04-26T14:56:29.436Z,30.27
2019-04-26T14:59:01.220Z,29.63
2019-04-26T15:01:44.387Z,28.73
2019-04-26T15:04:32.920Z,28.57
2019-04-26T15:07:05.459Z,29.67
2019-04-26T15:09:36.379Z,29.03
2019-04-26T15:12:07.728Z,28.83
2019-04-26T15:14:35.727Z,29.93
2019-04-26T15:17:05.460Z,30.13
2019-04-26T15:19:35.293Z,28.73
2019-04-26T15:22:10.320Z,28.17
2019-04-26T15:24:38.644Z,31.20
2019-04-26T15:27:07.554Z,30.57
2019-04-26T15:29:37.239Z,28.30
2019-04-26T15:32:06.482Z,28.40
2019-04-26T15:34:36.068Z,29.47
2019-04-26T15:37:05.395Z,29.97
2019-04-26T15:39:50.318Z,30.20
2019-04-26T15:42:32.452Z,30.63
2019-04-26T15:45:06.713Z,31.30
2019-04-26T15:47:53.978Z,30.07
2019-04-26T15:50:28.067Z,30.50
2019-04-26T15:52:57.512Z,31.70
2019-04-26T15:55:27.056Z,30.10
2019-04-26T15:57:56.434Z,31.17
2019-04-26T16:00:28.423Z,31.23
2019-04-26T16:02:58.564Z,31.57
2019-04-26T16:05:29.690Z,31.97
2019-04-26T16:08:01.809Z,31.87
2019-04-26T16:10:29.708Z,31.93
2019-04-26T16:13:15.790Z,32.20
2019-04-26T16:15:32.275Z,31.10
2019-04-26T16:18:03.862Z,31.33
2019-04-26T16:20:38.103Z,31.33
2019-04-26T16:23:06.226Z,31.13
2019-04-26T16:25:37.957Z,29.63
2019-04-26T16:28:23.653Z,30.10
2019-04-26T16:31:02.501Z,29.77
2019-04-26T16:33:34.632Z,29.90
2019-04-26T16:36:06.179Z,30.70
2019-04-26T16:38:36.036Z,31.13
2019-04-26T16:41:05.630Z,28.70
2019-04-26T16:43:40.244Z,30.00
2019-04-26T16:46:06.104Z,31.33
2019-04-26T16:48:35.325Z,29.93
2019-04-26T16:51:08.587Z,29.57
2019-04-26T16:53:46.386Z,33.33
2019-04-26T16:56:07.015Z,31.97
2019-04-26T16:58:38.406Z,32.40
2019-04-26T17:01:10.301Z,30.70
2019-04-26T17:03:45.111Z,32.23
2019-04-26T17:06:11.513Z,31.23
2019-04-26T17:08:49.170Z,32.17
2019-04-26T17:11:14.093Z,31.80
2019-04-26T17:13:51.521Z,33.07
2019-04-26T17:16:14.422Z,31.40
2019-04-26T17:18:44.114Z,31.60
2019-04-26T17:21:17.516Z,32.33
2019-04-26T17:23:55.256Z,32.53
2019-04-26T17:26:36.547Z,33.67
2019-04-26T17:29:05.999Z,33.50
2019-04-26T17:31:35.313Z,36.00
2019-04-26T17:34:05.248Z,32.43
2019-04-26T17:36:34.924Z,34.13
2019-04-26T17:39:06.187Z,43.83
2019-04-26T17:41:35.608Z,37.53
2019-04-26T17:44:10.224Z,34.70
2019-04-26T17:46:36.217Z,36.27
2019-04-26T17:49:05.543Z,33.60
2019-04-26T17:51:41.863Z,35.67
2019-04-26T17:54:26.650Z,34.13
2019-04-26T17:56:40.231Z,36.00
2019-04-26T17:59:13.651Z,35.57
2019-04-26T18:01:47.439Z,37.27
2019-04-26T18:04:11.390Z,36.77
2019-04-26T18:06:45.388Z,35.30
2019-04-26T18:09:37.627Z,37.63
2019-04-26T18:11:43.050Z,37.37
2019-04-26T18:14:21.211Z,36.80
2019-04-26T18:16:47.188Z,35.03
2019-04-26T18:19:44.541Z,36.00
2019-04-26T18:22:28.488Z,33.97
2019-04-26T18:24:59.140Z,35.30
2019-04-26T18:27:35.718Z,35.47
2019-04-26T18:30:08.331Z,32.37
2019-04-26T18:32:33.954Z,31.90
2019-04-26T18:35:03.033Z,31.07
2019-04-26T18:37:36.439Z,32.10
2019-04-26T18:40:04.761Z,33.27
2019-04-26T18:42:37.486Z,31.63
2019-04-26T18:45:05.867Z,32.93
2019-04-26T18:47:38.703Z,34.17
2019-04-26T18:50:11.132Z,35.03
2019-04-26T18:52:50.058Z,33.37
2019-04-26T18:55:29.185Z,30.80
2019-04-26T18:58:01.512Z,33.03
2019-04-26T19:00:38.777Z,33.43
2019-04-26T19:03:08.807Z,35.60
2019-04-26T19:05:38.414Z,36.43
2019-04-26T19:08:09.837Z,37.30
2019-04-26T19:10:38.780Z,38.97
2019-04-26T19:13:26.253Z,35.83
2019-04-26T19:16:21.529Z,36.93
2019-04-26T19:18:58.812Z,36.23
2019-04-26T19:21:38.967Z,37.17
2019-04-26T19:24:07.818Z,37.57
2019-04-26T19:26:36.482Z,32.43
2019-04-26T19:29:15.454Z,35.10
2019-04-26T19:31:36.931Z,33.87
2019-04-26T19:34:06.716Z,34.83
2019-04-26T19:36:36.819Z,36.47
2019-04-26T19:39:07.168Z,38.03
2019-04-26T19:41:36.609Z,36.23
2019-04-26T19:44:05.833Z,36.10
2019-04-26T19:46:44.720Z,36.93
2019-04-26T19:49:33.473Z,35.33
2019-04-26T19:52:33.623Z,42.73
2019-04-26T19:55:19.490Z,39.57
2019-04-26T19:57:57.327Z,43.50
2019-04-26T20:00:26.416Z,39.77
2019-04-26T20:02:55.915Z,37.00
2019-04-26T20:05:25.039Z,30.87
2019-04-26T20:07:54.333Z,44.57
2019-04-26T20:10:24.520Z,35.23
2019-04-26T20:12:54.118Z,38.97
2019-04-26T20:15:26.534Z,34.67
2019-04-26T20:17:59.823Z,40.23
2019-04-26T20:20:27.873Z,37.87
2019-04-26T20:22:59.432Z,36.20
2019-04-26T20:25:29.956Z,38.00
2019-04-26T20:28:00.176Z,35.20
2019-04-26T20:31:07.105Z,37.67
2019-04-26T20:33:34.935Z,37.37
2019-04-26T20:36:04.910Z,40.23
2019-04-26T20:38:42.717Z,37.23
2019-04-26T20:41:06.609Z,41.20
2019-04-26T20:43:36.898Z,40.40
2019-04-26T20:46:14.868Z,40.60
2019-04-26T20:48:42.641Z,41.30
2019-04-26T20:51:12.280Z,39.00
2019-04-26T20:53:43.691Z,37.67
2019-04-26T20:56:18.129Z,35.40
2019-04-26T20:58:46.974Z,33.37
2019-04-26T21:01:17.464Z,36.40
2019-04-26T21:03:46.738Z,36.70
2019-04-26T21:06:16.926Z,36.00
2019-04-26T21:08:46.664Z,32.23
2019-04-26T21:11:16.841Z,34.80
2019-04-26T21:13:46.782Z,36.73
2019-04-26T21:16:16.264Z,31.90
2019-04-26T21:18:49.304Z,33.17
2019-04-26T21:21:21.521Z,38.60
2019-04-26T21:23:52.236Z,35.40
2019-04-26T21:26:32.097Z,33.63
2019-04-26T21:29:21.842Z,32.77
2019-04-26T21:32:05.810Z,35.07
2019-04-26T21:34:39.233Z,33.40
2019-04-26T21:37:27.952Z,37.97
2019-04-26T21:40:04.251Z,33.13
2019-04-26T21:42:33.996Z,30.77
2019-04-26T21:45:06.228Z,32.13
2019-04-26T21:47:37.215Z,31.07
2019-04-26T21:50:07.023Z,30.53
2019-04-26T21:52:36.243Z,37.27
2019-04-26T21:55:06.632Z,41.23
2019-04-26T21:57:36.859Z,35.77
2019-04-26T22:00:09.171Z,35.13
2019-04-26T22:02:38.458Z,36.37
2019-04-26T22:05:11.588Z,31.30
2019-04-26T22:07:39.557Z,35.87
2019-04-26T22:10:16.312Z,37.00
2019-04-26T22:12:45.617Z,44.10
2019-04-26T22:15:29.532Z,36.43
2019-04-26T22:18:03.762Z,36.70
2019-04-26T22:20:55.274Z,33.67
2019-04-26T22:23:33.713Z,34.60
2019-04-26T22:26:06.785Z,33.73
2019-04-26T22:28:35.936Z,38.57
2019-04-26T22:31:08.413Z,38.17
2019-04-26T22:33:37.429Z,52.80
2019-04-26T22:36:07.078Z,44.87
2019-04-26T22:38:36.439Z,67.40
2019-04-26T22:41:05.876Z,56.23
2019-04-26T22:43:54.127Z,50.83
2019-04-26T22:46:44.493Z,46.60
2019-04-26T22:49:05.550Z,58.37
2019-04-26T22:51:37.158Z,47.27
2019-04-26T22:54:06.503Z,46.30
2019-04-26T22:56:37.052Z,42.53
2019-04-26T22:59:07.954Z,50.00
2019-04-26T23:01:39.291Z,51.27
2019-04-26T23:04:08.648Z,67.23
2019-04-26T23:06:38.095Z,54.53
2019-04-26T23:09:11.735Z,69.83
2019-04-26T23:11:43.453Z,97.77
2019-04-26T23:14:38.717Z,75.00
2019-04-26T23:17:45.358Z,65.40
2019-04-26T23:20:34.282Z,49.50
2019-04-26T23:23:06.189Z,39.70
2019-04-26T23:25:34.377Z,42.70
2019-04-26T23:28:04.090Z,38.87
2019-04-26T23:30:36.274Z,39.00
2019-04-26T23:33:05.548Z,38.20
2019-04-26T23:35:37.555Z,39.90
2019-04-26T23:38:06.116Z,40.47
2019-04-26T23:40:35.522Z,41.13
2019-04-26T23:43:05.113Z,35.13
2019-04-26T23:45:34.431Z,39.90
2019-04-26T23:48:07.662Z,39.73
2019-04-26T23:50:34.983Z,53.97
2019-04-26T23:53:04.148Z,52.80
2019-04-26T23:55:33.845Z,43.50
2019-04-26T23:58:04.887Z,49.23
